createdAt,value
2022-09-05T00:00:05.764Z,83.05
2022-09-05T00:02:39.343Z,83.06
2022-09-05T00:05:35.123Z,83.20
2022-09-05T00:08:17.748Z,83.64
2022-09-05T00:11:39.331Z,84.03
2022-09-05T00:13:48.141Z,84.23
2022-09-05T00:16:35.521Z,84.42
2022-09-05T00:22:05.023Z,84.75
2022-09-05T00:24:28.940Z,85.13
2022-09-05T00:25:44.015Z,85.09
2022-09-05T00:28:25.971Z,85.44
2022-09-05T00:31:56.088Z,85.69
2022-09-05T00:34:09.648Z,86.02
2022-09-05T00:36:44.852Z,86.10
2022-09-05T00:39:17.846Z,86.04
2022-09-05T00:41:50.455Z,86.16
2022-09-05T00:44:21.462Z,85.88
2022-09-05T00:46:56.785Z,86.03
2022-09-05T00:49:29.089Z,86.56
2022-09-05T00:52:03.261Z,86.32
2022-09-05T00:54:44.258Z,86.33
2022-09-05T00:57:53.656Z,86.61
2022-09-05T01:00:23.847Z,86.73
2022-09-05T01:03:31.407Z,86.94
2022-09-05T01:06:13.706Z,87.43
2022-09-05T01:09:07.932Z,87.48
2022-09-05T01:11:45.700Z,88.01
2022-09-05T01:14:45.161Z,88.33
2022-09-05T01:17:25.092Z,88.03
2022-09-05T01:20:19.359Z,88.20
2022-09-05T01:23:15.406Z,88.96
2022-09-05T01:26:00.416Z,89.22
2022-09-05T01:29:15.389Z,89.46
2022-09-05T01:31:34.707Z,89.39
2022-09-05T01:34:12.500Z,89.49
2022-09-05T01:36:58.437Z,89.66
2022-09-05T01:40:11.394Z,89.99
2022-09-05T01:42:36.896Z,89.59
2022-09-05T01:45:11.125Z,89.97
2022-09-05T01:47:57.492Z,90.20
2022-09-05T01:50:43.720Z,90.22
2022-09-05T01:53:34.332Z,90.10
2022-09-05T01:56:37.007Z,90.19
2022-09-05T01:59:34.781Z,90.78
2022-09-05T02:02:17.554Z,90.34
2022-09-05T02:05:11.797Z,91.08
2022-09-05T02:07:59.941Z,91.55
2022-09-05T02:10:54.645Z,91.61
2022-09-05T02:13:30.037Z,91.83
2022-09-05T02:16:04.606Z,91.78
2022-09-05T02:18:53.883Z,92.04
2022-09-05T02:21:56.500Z,92.43
2022-09-05T02:24:36.258Z,92.68
2022-09-05T02:27:35.881Z,92.53
2022-09-05T02:30:10.049Z,92.85
2022-09-05T02:32:49.159Z,92.90
2022-09-05T02:35:25.533Z,92.65
2022-09-05T02:39:02.505Z,92.88
2022-09-05T02:45:06.292Z,92.82
2022-09-05T02:45:08.932Z,92.88
2022-09-05T02:46:46.613Z,92.21
2022-09-05T02:50:28.248Z,92.80
2022-09-05T02:57:26.661Z,92.88
2022-09-05T02:57:40.248Z,92.91
2022-09-05T02:58:04.531Z,92.71
2022-09-05T03:00:42.305Z,92.79
2022-09-05T03:03:21.032Z,92.61
2022-09-05T03:05:57.790Z,92.87
2022-09-05T03:08:43.998Z,93.00
2022-09-05T03:11:44.700Z,93.09
2022-09-05T03:14:51.157Z,93.12
2022-09-05T03:18:20.806Z,92.93
2022-09-05T03:21:23.113Z,93.39
2022-09-05T03:24:29.900Z,93.33
2022-09-05T03:27:29.312Z,93.27
2022-09-05T03:30:08.303Z,93.85
2022-09-05T03:33:11.972Z,93.72
2022-09-05T03:36:11.606Z,93.98
2022-09-05T03:39:08.917Z,94.47
2022-09-05T03:41:55.299Z,95.59
2022-09-05T03:44:37.581Z,95.22
2022-09-05T03:47:29.856Z,95.58
2022-09-05T03:53:29.397Z,96.15
2022-09-05T03:57:07.654Z,96.14
2022-09-05T03:57:13.962Z,96.07
2022-09-05T03:59:47.288Z,96.27
2022-09-05T04:03:40.851Z,96.46
2022-09-05T04:08:26.540Z,96.49
2022-09-05T04:08:34.133Z,96.72
2022-09-05T04:11:04.071Z,96.61
2022-09-05T04:13:36.984Z,96.61
2022-09-05T04:16:12.847Z,96.41
2022-09-05T04:18:43.850Z,96.33
2022-09-05T04:21:17.571Z,96.91
2022-09-05T04:23:59.968Z,97.45
2022-09-05T04:26:47.025Z,97.38
2022-09-05T04:29:20.803Z,98.19
2022-09-05T04:32:07.483Z,97.94
2022-09-05T04:34:58.125Z,97.74
2022-09-05T04:37:47.806Z,97.69
2022-09-05T04:40:55.292Z,97.47
2022-09-05T04:43:31.169Z,96.93
2022-09-05T04:46:08.659Z,96.46
2022-09-05T04:48:44.002Z,96.25
2022-09-05T04:51:30.978Z,95.52
2022-09-05T04:54:19.753Z,95.13
2022-09-05T04:56:51.901Z,94.40
2022-09-05T05:01:24.327Z,94.00
2022-09-05T05:06:14.657Z,92.47
2022-09-05T05:06:22.675Z,92.91
2022-09-05T05:08:13.499Z,91.25
2022-09-05T05:16:26.556Z,90.99
2022-09-05T05:18:00.013Z,90.21
2022-09-05T05:18:09.410Z,88.41
2022-09-05T05:19:31.312Z,87.67
2022-09-05T05:22:04.764Z,84.24
2022-09-05T05:24:39.869Z,83.64
2022-09-05T05:27:13.782Z,82.58
2022-09-05T05:29:49.508Z,82.55
2022-09-05T05:32:31.645Z,82.28
2022-09-05T05:35:13.205Z,80.00
2022-09-05T05:37:46.653Z,80.35
2022-09-05T05:40:25.475Z,76.88
2022-09-05T05:42:54.288Z,76.34
2022-09-05T05:45:27.649Z,74.82
2022-09-05T05:48:00.070Z,73.54
2022-09-05T05:50:37.457Z,73.27
2022-09-05T05:53:41.054Z,73.56
2022-09-05T05:56:36.216Z,72.87
2022-09-05T05:59:56.258Z,71.84
2022-09-05T06:03:25.540Z,71.17
2022-09-05T06:06:23.123Z,71.73
2022-09-05T06:14:51.930Z,70.36
2022-09-05T06:15:06.091Z,69.92
2022-09-05T06:16:23.405Z,69.81
2022-09-05T06:19:17.230Z,68.46
2022-09-05T06:22:15.798Z,65.66
2022-09-05T06:25:18.992Z,66.58
2022-09-05T06:28:19.513Z,65.97
2022-09-05T06:30:57.623Z,65.60
2022-09-05T06:33:53.189Z,65.06
2022-09-05T06:36:43.860Z,65.30
2022-09-05T06:39:17.558Z,62.65
2022-09-05T06:42:05.025Z,60.89
2022-09-05T06:45:26.264Z,61.14
2022-09-05T06:48:10.319Z,61.75
2022-09-05T06:51:10.800Z,62.85
2022-09-05T06:54:08.681Z,61.55
2022-09-05T06:56:50.960Z,61.01
2022-09-05T06:59:59.245Z,61.47
2022-09-05T07:02:59.857Z,61.56
2022-09-05T07:05:39.763Z,62.00
2022-09-05T07:08:36.551Z,63.01
2022-09-05T07:11:16.363Z,63.05
2022-09-05T07:13:55.513Z,62.39
2022-09-05T07:16:37.924Z,62.37
2022-09-05T07:19:33.625Z,62.31
2022-09-05T07:22:47.464Z,61.09
2022-09-05T07:25:18.090Z,60.89
2022-09-05T07:28:29.310Z,60.20
2022-09-05T07:30:42.561Z,60.23
2022-09-05T07:33:10.708Z,60.51
2022-09-05T07:35:42.255Z,58.76
2022-09-05T07:38:15.880Z,59.26
2022-09-05T07:40:51.435Z,58.15
2022-09-05T07:43:23.771Z,56.64
2022-09-05T07:46:03.958Z,57.45
2022-09-05T07:48:36.617Z,54.79
2022-09-05T07:56:46.101Z,55.39
2022-09-05T07:57:00.085Z,53.51
2022-09-05T07:57:22.282Z,53.93
2022-09-05T07:59:40.328Z,53.04
2022-09-05T08:02:11.395Z,52.35
2022-09-05T08:04:40.801Z,51.67
2022-09-05T08:07:47.022Z,52.38
2022-09-05T08:10:09.776Z,51.22
2022-09-05T08:12:51.186Z,51.46
2022-09-05T08:15:41.000Z,51.63
2022-09-05T08:18:23.918Z,51.99
2022-09-05T08:20:56.225Z,52.02
2022-09-05T08:23:37.909Z,50.88
2022-09-05T08:26:11.753Z,50.49
2022-09-05T08:28:53.546Z,49.93
2022-09-05T08:31:24.990Z,50.25
2022-09-05T08:34:00.257Z,50.64
2022-09-05T08:36:34.800Z,51.10
2022-09-05T08:39:05.529Z,49.42
2022-09-05T08:41:52.306Z,49.49
2022-09-05T08:46:43.071Z,49.20
2022-09-05T08:47:33.082Z,48.30
2022-09-05T08:50:39.132Z,47.95
2022-09-05T08:53:36.006Z,48.60
2022-09-05T08:56:05.891Z,48.83
2022-09-05T08:59:31.699Z,47.73
2022-09-05T09:02:14.572Z,49.88
2022-09-05T09:05:03.104Z,49.31
2022-09-05T09:07:50.565Z,49.50
2022-09-05T09:10:30.130Z,49.19
2022-09-05T09:13:29.172Z,49.36
2022-09-05T09:16:06.507Z,49.82
2022-09-05T09:18:42.860Z,50.73
2022-09-05T09:21:25.234Z,50.05
2022-09-05T09:24:06.728Z,49.93
2022-09-05T09:26:41.922Z,49.25
2022-09-05T09:29:13.195Z,48.30
2022-09-05T09:32:00.380Z,48.15
2022-09-05T09:34:51.844Z,47.50
2022-09-05T09:37:58.728Z,48.54
2022-09-05T09:41:04.001Z,48.73
2022-09-05T09:43:52.823Z,47.64
2022-09-05T09:46:30.505Z,48.70
2022-09-05T09:49:22.974Z,48.59
2022-09-05T09:52:22.005Z,48.84
2022-09-05T09:55:39.753Z,48.15
2022-09-05T09:58:39.147Z,48.94
2022-09-05T10:01:36.483Z,48.98
2022-09-05T10:10:32.926Z,50.58
2022-09-05T10:10:49.593Z,50.47
2022-09-05T10:11:50.026Z,49.23
2022-09-05T10:14:49.083Z,48.73
2022-09-05T10:17:43.273Z,47.15
2022-09-05T10:20:41.696Z,47.46
2022-09-05T10:23:28.754Z,45.43
2022-09-05T10:26:24.705Z,44.99
2022-09-05T10:29:37.077Z,46.42
2022-09-05T10:34:49.081Z,45.85
2022-09-05T10:35:14.036Z,46.03
2022-09-05T10:37:51.416Z,46.45
2022-09-05T10:40:23.303Z,47.72
2022-09-05T10:43:00.634Z,48.70
2022-09-05T10:45:39.708Z,47.88
2022-09-05T10:48:19.260Z,48.15
2022-09-05T10:50:54.488Z,48.71
2022-09-05T10:53:39.196Z,48.81
2022-09-05T10:56:13.069Z,49.50
2022-09-05T11:01:06.920Z,49.70
2022-09-05T11:02:22.751Z,49.63
2022-09-05T11:04:53.970Z,50.27
2022-09-05T11:07:32.401Z,50.93
2022-09-05T11:10:07.849Z,50.80
2022-09-05T11:12:58.541Z,50.74
2022-09-05T11:15:35.155Z,48.96
2022-09-05T11:18:08.593Z,49.28
2022-09-05T11:20:46.885Z,49.02
2022-09-05T11:23:20.982Z,48.09
2022-09-05T11:25:57.174Z,47.35
2022-09-05T11:28:36.950Z,47.04
2022-09-05T11:31:13.194Z,47.46
2022-09-05T11:39:54.773Z,48.63
2022-09-05T11:40:09.968Z,49.00
2022-09-05T11:40:51.157Z,48.90
2022-09-05T11:44:24.584Z,48.62
2022-09-05T11:46:50.376Z,47.83
2022-09-05T11:49:44.489Z,47.29
2022-09-05T11:52:40.660Z,48.06
2022-09-05T11:55:27.276Z,48.83
2022-09-05T11:58:43.930Z,49.06
2022-09-05T12:01:42.448Z,49.93
2022-09-05T12:04:16.934Z,49.97
2022-09-05T12:07:30.343Z,50.76
2022-09-05T12:10:10.405Z,50.10
2022-09-05T12:13:16.023Z,49.23
2022-09-05T12:16:03.071Z,49.46
2022-09-05T12:18:41.613Z,50.01
2022-09-05T12:21:26.382Z,49.21
2022-09-05T12:25:17.045Z,49.28
2022-09-05T12:27:44.345Z,50.07
2022-09-05T12:29:52.267Z,49.86
2022-09-05T12:35:49.987Z,50.16
2022-09-05T12:36:07.010Z,50.45
2022-09-05T12:41:31.967Z,50.45
2022-09-05T12:41:44.938Z,50.38
2022-09-05T12:44:41.753Z,50.30
2022-09-05T12:47:18.845Z,50.63
2022-09-05T12:50:02.906Z,50.23
2022-09-05T12:52:46.478Z,49.73
2022-09-05T12:55:25.868Z,49.22
2022-09-05T13:03:04.203Z,49.84
2022-09-05T13:03:06.704Z,49.75
2022-09-05T13:04:13.336Z,49.18
2022-09-05T13:06:38.958Z,48.41
2022-09-05T13:09:11.330Z,48.36
2022-09-05T13:14:56.823Z,49.11
2022-09-05T13:15:11.471Z,48.58
2022-09-05T13:17:45.484Z,48.96
2022-09-05T13:20:19.173Z,48.79
2022-09-05T13:22:50.449Z,48.61
2022-09-05T13:25:24.950Z,48.37
2022-09-05T13:27:58.986Z,48.16
2022-09-05T13:33:01.936Z,48.41
2022-09-05T13:38:19.480Z,48.07
2022-09-05T13:38:29.398Z,47.77
2022-09-05T13:39:06.000Z,47.93
2022-09-05T13:41:38.661Z,48.00
2022-09-05T13:44:27.464Z,48.10
2022-09-05T13:46:59.657Z,47.99
2022-09-05T13:49:33.117Z,48.13
2022-09-05T13:52:17.920Z,48.43
2022-09-05T13:54:51.681Z,47.73
2022-09-05T13:57:35.613Z,47.63
2022-09-05T14:00:51.278Z,47.73
2022-09-05T14:03:50.900Z,47.35
2022-09-05T14:06:48.941Z,47.96
2022-09-05T14:09:46.704Z,47.73
2022-09-05T14:12:29.276Z,47.56
2022-09-05T14:15:11.007Z,47.48
2022-09-05T14:17:58.248Z,47.18
2022-09-05T14:20:49.445Z,47.51
2022-09-05T14:23:19.979Z,48.26
2022-09-05T14:25:52.439Z,48.42
2022-09-05T14:28:26.694Z,48.60
2022-09-05T14:32:48.403Z,50.36
2022-09-05T14:37:44.747Z,50.64
2022-09-05T14:38:01.356Z,50.05
2022-09-05T14:40:30.352Z,50.37
2022-09-05T14:43:27.137Z,50.98
2022-09-05T14:46:42.848Z,51.17
2022-09-05T14:49:31.707Z,51.24
2022-09-05T14:51:59.625Z,51.06
2022-09-05T15:02:45.107Z,51.71
2022-09-05T15:02:53.583Z,51.84
2022-09-05T15:03:05.322Z,52.73
2022-09-05T15:05:41.629Z,53.24
2022-09-05T15:08:29.864Z,54.23
2022-09-05T15:12:20.853Z,53.89
2022-09-05T15:13:57.272Z,54.16
2022-09-05T15:16:26.406Z,54.77
2022-09-05T15:18:56.206Z,54.80
2022-09-05T15:21:34.048Z,54.62
2022-09-05T15:24:13.442Z,54.78
2022-09-05T15:26:51.223Z,56.42
2022-09-05T15:29:23.557Z,56.30
2022-09-05T15:31:53.270Z,57.75
2022-09-05T15:34:38.581Z,58.20
2022-09-05T15:37:23.096Z,58.32
2022-09-05T15:40:01.134Z,59.00
2022-09-05T15:42:32.448Z,60.11
2022-09-05T15:45:10.575Z,60.49
2022-09-05T15:47:44.501Z,61.43
2022-09-05T15:50:22.033Z,61.57
2022-09-05T15:52:55.709Z,61.87
2022-09-05T15:55:25.176Z,62.13
2022-09-05T15:57:56.492Z,62.20
2022-09-05T16:00:43.646Z,61.92
2022-09-05T16:04:38.085Z,62.61
2022-09-05T16:10:42.369Z,62.49
2022-09-05T16:10:46.733Z,61.98
2022-09-05T16:15:51.393Z,61.96
2022-09-05T16:23:24.939Z,62.50
2022-09-05T16:23:26.018Z,62.22
2022-09-05T16:23:40.523Z,62.45
2022-09-05T16:26:14.181Z,62.09
2022-09-05T16:28:57.704Z,61.59
2022-09-05T16:31:33.670Z,61.55
2022-09-05T16:34:02.737Z,61.76
2022-09-05T16:36:48.789Z,62.56
2022-09-05T16:39:32.235Z,63.41
2022-09-05T16:42:08.869Z,64.46
2022-09-05T16:44:43.745Z,64.70
2022-09-05T16:47:22.212Z,64.65
2022-09-05T16:49:58.831Z,64.72
2022-09-05T16:52:36.006Z,64.63
2022-09-05T16:55:11.858Z,64.44
2022-09-05T16:57:44.292Z,64.29
2022-09-05T17:00:16.482Z,63.79
2022-09-05T17:02:53.473Z,63.82
2022-09-05T17:05:31.457Z,63.31
2022-09-05T17:08:05.149Z,62.77
2022-09-05T17:10:35.627Z,62.77
2022-09-05T17:13:06.789Z,62.69
2022-09-05T17:15:37.212Z,63.02
2022-09-05T17:18:21.768Z,62.82
2022-09-05T17:20:55.699Z,62.80
2022-09-05T17:28:13.682Z,62.88
2022-09-05T17:29:30.889Z,63.69
2022-09-05T17:32:47.702Z,63.49
2022-09-05T17:35:42.613Z,63.50
2022-09-05T17:38:33.600Z,63.96
2022-09-05T17:41:14.286Z,63.86
2022-09-05T17:43:42.469Z,64.37
2022-09-05T17:46:20.341Z,64.22
2022-09-05T17:49:20.086Z,64.40
2022-09-05T17:52:17.314Z,64.32
2022-09-05T17:54:49.818Z,64.18
2022-09-05T17:57:36.473Z,64.67
2022-09-05T18:00:49.381Z,64.96
2022-09-05T18:04:17.731Z,65.04
2022-09-05T18:06:59.983Z,65.45
2022-09-05T18:10:12.252Z,65.65
2022-09-05T18:13:12.852Z,65.96
2022-09-05T18:16:11.506Z,66.04
2022-09-05T18:19:32.721Z,66.43
2022-09-05T18:21:48.063Z,66.64
2022-09-05T18:24:25.180Z,66.97
2022-09-05T18:27:47.415Z,66.90
2022-09-05T18:30:03.996Z,67.24
2022-09-05T18:32:45.312Z,67.29
2022-09-05T18:35:36.452Z,67.62
2022-09-05T18:38:26.095Z,67.74
2022-09-05T18:41:14.660Z,67.66
2022-09-05T18:44:12.655Z,68.18
2022-09-05T18:46:43.266Z,68.02
2022-09-05T18:50:15.805Z,68.57
2022-09-05T18:52:04.970Z,68.86
2022-09-05T18:54:35.979Z,69.00
2022-09-05T18:57:24.179Z,69.07
2022-09-05T18:59:59.520Z,69.18
2022-09-05T19:02:49.892Z,69.06
2022-09-05T19:05:28.433Z,69.38
2022-09-05T19:07:59.425Z,69.59
2022-09-05T19:10:34.481Z,69.94
2022-09-05T19:13:13.817Z,70.03
2022-09-05T19:15:49.811Z,69.99
2022-09-05T19:18:26.567Z,70.12
2022-09-05T19:21:12.028Z,70.38
2022-09-05T19:23:44.224Z,69.92
2022-09-05T19:26:12.962Z,69.99
2022-09-05T19:36:44.149Z,69.95
2022-09-05T19:36:55.714Z,69.84
2022-09-05T19:37:08.545Z,69.52
2022-09-05T19:37:28.896Z,69.61
2022-09-05T19:46:17.052Z,69.62
2022-09-05T19:47:34.265Z,69.14
2022-09-05T19:47:37.850Z,69.54
2022-09-05T19:48:28.655Z,68.71
2022-09-05T19:50:57.536Z,68.36
2022-09-05T19:53:25.944Z,68.11
2022-09-05T19:55:54.409Z,67.93
2022-09-05T19:58:23.986Z,67.72
2022-09-05T20:01:03.288Z,67.51
2022-09-05T20:03:39.549Z,66.91
2022-09-05T20:06:24.669Z,66.97
2022-09-05T20:09:09.665Z,66.83
2022-09-05T20:11:46.429Z,66.75
2022-09-05T20:14:19.633Z,66.92
2022-09-05T20:16:50.081Z,66.92
2022-09-05T20:19:31.759Z,67.04
2022-09-05T20:22:31.769Z,67.38
2022-09-05T20:24:55.280Z,67.05
2022-09-05T20:27:27.519Z,67.17
2022-09-05T20:29:58.928Z,67.34
2022-09-05T20:32:39.523Z,67.36
2022-09-05T20:43:01.475Z,67.35
2022-09-05T20:43:18.213Z,67.78
2022-09-05T20:43:30.696Z,67.55
2022-09-05T20:43:54.427Z,67.95
2022-09-05T20:50:44.452Z,68.30
2022-09-05T20:54:13.741Z,69.11
2022-09-05T20:54:24.430Z,69.29
2022-09-05T20:55:38.012Z,69.73
2022-09-05T20:58:09.461Z,69.96
2022-09-05T21:00:39.619Z,70.09
2022-09-05T21:03:09.188Z,69.94
2022-09-05T21:05:40.284Z,69.69
2022-09-05T21:08:32.866Z,69.91
2022-09-05T21:11:02.815Z,69.89
2022-09-05T21:13:32.916Z,69.76
2022-09-05T21:16:01.953Z,69.80
2022-09-05T21:18:33.480Z,69.96
2022-09-05T21:21:06.930Z,69.91
2022-09-05T21:24:18.212Z,69.82
2022-09-05T21:26:47.927Z,69.84
2022-09-05T21:29:17.438Z,69.45
2022-09-05T21:31:49.162Z,69.87
2022-09-05T21:34:26.451Z,69.78
2022-09-05T21:37:07.458Z,69.80
2022-09-05T21:39:40.015Z,69.79
2022-09-05T21:43:06.534Z,69.74
2022-09-05T21:47:43.438Z,70.11
2022-09-05T21:47:53.305Z,69.99
2022-09-05T21:50:31.639Z,70.23
2022-09-05T21:54:51.711Z,70.28
2022-09-05T21:59:17.851Z,70.39
2022-09-05T21:59:24.587Z,70.72
2022-09-05T22:01:51.679Z,70.71
2022-09-05T22:04:17.477Z,70.94
2022-09-05T22:06:48.580Z,71.25
2022-09-05T22:09:19.815Z,71.55
2022-09-05T22:11:50.440Z,71.60
2022-09-05T22:14:18.657Z,71.73
2022-09-05T22:16:47.333Z,71.80
2022-09-05T22:19:22.446Z,71.88
2022-09-05T22:21:52.687Z,72.75
2022-09-05T22:24:23.967Z,72.86
2022-09-05T22:27:11.890Z,73.29
2022-09-05T22:29:40.784Z,73.83
2022-09-05T22:32:08.818Z,74.34
2022-09-05T22:34:36.864Z,74.31
2022-09-05T22:37:04.565Z,74.97
2022-09-05T22:39:37.741Z,75.46
2022-09-05T22:42:07.641Z,75.63
2022-09-05T22:44:39.063Z,76.62
2022-09-05T22:47:07.002Z,77.74
2022-09-05T22:49:36.240Z,77.76
2022-09-05T22:52:05.044Z,78.01
2022-09-05T22:54:34.259Z,79.02
2022-09-05T22:57:02.304Z,78.97
2022-09-05T22:59:30.078Z,79.68
2022-09-05T23:01:57.771Z,80.55
2022-09-05T23:04:25.869Z,81.62
2022-09-05T23:06:54.069Z,81.77
2022-09-05T23:09:21.748Z,81.91
2022-09-05T23:11:50.713Z,82.63
2022-09-05T23:14:18.378Z,83.23
2022-09-05T23:16:46.009Z,83.57
2022-09-05T23:19:13.688Z,84.31
2022-09-05T23:21:41.327Z,84.81
2022-09-05T23:24:08.962Z,85.08
2022-09-05T23:26:36.659Z,85.17
2022-09-05T23:29:05.697Z,85.63
2022-09-05T23:31:33.360Z,85.92
2022-09-05T23:34:01.030Z,85.18
2022-09-05T23:36:28.724Z,86.23
2022-09-05T23:38:56.364Z,86.82
2022-09-05T23:41:24.000Z,86.51
2022-09-05T23:43:51.638Z,86.87
2022-09-05T23:46:20.747Z,86.87
2022-09-05T23:48:48.426Z,87.47
2022-09-05T23:51:16.249Z,87.49
2022-09-05T23:53:45.999Z,87.19
2022-09-05T23:56:13.645Z,87.49
2022-09-05T23:58:41.370Z,87.51
